sensor_id;sensor_type;location;lat;lon;timestamp;temperature;humidity
2783;DHT22;1399;47.072;15.452;2023-03-14T00:01:55;11.60;48.10
2783;DHT22;1399;47.072;15.452;2023-03-14T00:04:21;11.70;48.30
2783;DHT22;1399;47.072;15.452;2023-03-14T00:06:47;11.60;48.30
2783;DHT22;1399;47.072;15.452;2023-03-14T00:09:16;11.70;48.40
2783;DHT22;1399;47.072;15.452;2023-03-14T00:11:42;11.60;48.30
2783;DHT22;1399;47.072;15.452;2023-03-14T00:14:08;11.60;48.30
2783;DHT22;1399;47.072;15.452;2023-03-14T00:16:33;11.60;48.30
2783;DHT22;1399;47.072;15.452;2023-03-14T00:19:00;11.60;48.30
2783;DHT22;1399;47.072;15.452;2023-03-14T00:21:26;11.60;48.40
2783;DHT22;1399;47.072;15.452;2023-03-14T00:23:52;11.60;48.40
2783;DHT22;1399;47.072;15.452;2023-03-14T00:26:19;11.60;48.40
2783;DHT22;1399;47.072;15.452;2023-03-14T00:28:46;11.60;48.40
2783;DHT22;1399;47.072;15.452;2023-03-14T00:31:15;11.60;48.40
2783;DHT22;1399;47.072;15.452;2023-03-14T00:33:42;11.60;48.40
2783;DHT22;1399;47.072;15.452;2023-03-14T00:36:11;11.60;48.50
2783;DHT22;1399;47.072;15.452;2023-03-14T00:38:38;11.60;48.50
2783;DHT22;1399;47.072;15.452;2023-03-14T00:41:10;11.60;48.60
2783;DHT22;1399;47.072;15.452;2023-03-14T00:43:36;11.50;48.50
2783;DHT22;1399;47.072;15.452;2023-03-14T00:46:02;11.50;48.60
2783;DHT22;1399;47.072;15.452;2023-03-14T00:48:28;11.50;48.60
2783;DHT22;1399;47.072;15.452;2023-03-14T00:50:54;11.50;48.60
2783;DHT22;1399;47.072;15.452;2023-03-14T00:53:20;11.50;48.70
2783;DHT22;1399;47.072;15.452;2023-03-14T00:55:46;11.50;48.70
2783;DHT22;1399;47.072;15.452;2023-03-14T00:58:14;11.50;48.80
2783;DHT22;1399;47.072;15.452;2023-03-14T01:00:41;11.50;48.80
2783;DHT22;1399;47.072;15.452;2023-03-14T01:03:07;11.50;48.80
2783;DHT22;1399;47.072;15.452;2023-03-14T01:05:33;11.50;48.80
2783;DHT22;1399;47.072;15.452;2023-03-14T01:07:59;11.50;48.80
2783;DHT22;1399;47.072;15.452;2023-03-14T01:10:24;11.50;48.90
2783;DHT22;1399;47.072;15.452;2023-03-14T01:12:50;11.50;49.00
2783;DHT22;1399;47.072;15.452;2023-03-14T01:15:16;11.50;49.00
2783;DHT22;1399;47.072;15.452;2023-03-14T01:17:42;11.50;49.00
2783;DHT22;1399;47.072;15.452;2023-03-14T01:20:11;11.50;49.00
2783;DHT22;1399;47.072;15.452;2023-03-14T01:22:38;11.40;48.90
2783;DHT22;1399;47.072;15.452;2023-03-14T01:25:09;11.40;49.00
2783;DHT22;1399;47.072;15.452;2023-03-14T01:27:36;11.40;49.00
2783;DHT22;1399;47.072;15.452;2023-03-14T01:30:03;11.50;49.10
2783;DHT22;1399;47.072;15.452;2023-03-14T01:32:29;11.40;49.00
2783;DHT22;1399;47.072;15.452;2023-03-14T01:34:54;11.50;49.20
2783;DHT22;1399;47.072;15.452;2023-03-14T01:37:20;11.50;49.20
2783;DHT22;1399;47.072;15.452;2023-03-14T01:39:49;11.50;49.20
2783;DHT22;1399;47.072;15.452;2023-03-14T01:42:15;11.40;49.20
2783;DHT22;1399;47.072;15.452;2023-03-14T01:44:57;11.40;49.20
2783;DHT22;1399;47.072;15.452;2023-03-14T01:47:23;11.40;49.20
2783;DHT22;1399;47.072;15.452;2023-03-14T01:50:10;11.40;49.30
2783;DHT22;1399;47.072;15.452;2023-03-14T01:52:44;11.40;49.30
2783;DHT22;1399;47.072;15.452;2023-03-14T01:55:23;11.40;49.40
2783;DHT22;1399;47.072;15.452;2023-03-14T01:57:55;11.40;49.40
2783;DHT22;1399;47.072;15.452;2023-03-14T02:00:23;11.40;49.40
2783;DHT22;1399;47.072;15.452;2023-03-14T02:02:55;11.40;49.40
2783;DHT22;1399;47.072;15.452;2023-03-14T02:05:24;11.40;49.50
2783;DHT22;1399;47.072;15.452;2023-03-14T02:07:53;11.40;49.50
2783;DHT22;1399;47.072;15.452;2023-03-14T02:10:22;11.40;49.60
2783;DHT22;1399;47.072;15.452;2023-03-14T02:12:50;11.40;49.60
2783;DHT22;1399;47.072;15.452;2023-03-14T02:15:17;11.40;49.80
2783;DHT22;1399;47.072;15.452;2023-03-14T02:17:44;11.40;49.70
2783;DHT22;1399;47.072;15.452;2023-03-14T02:22:48;11.40;50.50
2783;DHT22;1399;47.072;15.452;2023-03-14T02:25:23;11.40;49.80
2783;DHT22;1399;47.072;15.452;2023-03-14T02:27:53;11.40;49.90
2783;DHT22;1399;47.072;15.452;2023-03-14T02:30:30;11.40;49.90
2783;DHT22;1399;47.072;15.452;2023-03-14T02:33:20;11.40;50.00
2783;DHT22;1399;47.072;15.452;2023-03-14T02:36:07;11.40;50.00
2783;DHT22;1399;47.072;15.452;2023-03-14T02:38:48;11.40;50.00
2783;DHT22;1399;47.072;15.452;2023-03-14T02:41:16;11.40;50.00
2783;DHT22;1399;47.072;15.452;2023-03-14T02:43:42;11.40;50.10
2783;DHT22;1399;47.072;15.452;2023-03-14T02:46:11;11.40;50.10
2783;DHT22;1399;47.072;15.452;2023-03-14T02:48:48;11.40;50.20
2783;DHT22;1399;47.072;15.452;2023-03-14T02:51:16;11.40;50.30
2783;DHT22;1399;47.072;15.452;2023-03-14T02:53:42;11.40;50.30
2783;DHT22;1399;47.072;15.452;2023-03-14T02:56:09;11.40;50.30
2783;DHT22;1399;47.072;15.452;2023-03-14T02:58:36;11.40;50.30
2783;DHT22;1399;47.072;15.452;2023-03-14T03:01:02;11.40;50.30
2783;DHT22;1399;47.072;15.452;2023-03-14T03:03:28;11.40;50.40
2783;DHT22;1399;47.072;15.452;2023-03-14T03:05:55;11.40;50.40
2783;DHT22;1399;47.072;15.452;2023-03-14T03:08:23;11.40;50.40
2783;DHT22;1399;47.072;15.452;2023-03-14T03:10:50;11.40;50.50
2783;DHT22;1399;47.072;15.452;2023-03-14T03:13:16;11.40;50.50
2783;DHT22;1399;47.072;15.452;2023-03-14T03:15:43;11.40;50.50
2783;DHT22;1399;47.072;15.452;2023-03-14T03:18:09;11.40;50.60
2783;DHT22;1399;47.072;15.452;2023-03-14T03:20:35;11.40;50.60
2783;DHT22;1399;47.072;15.452;2023-03-14T03:23:01;11.40;50.60
2783;DHT22;1399;47.072;15.452;2023-03-14T03:25:27;11.40;50.60
2783;DHT22;1399;47.072;15.452;2023-03-14T03:27:54;11.40;50.70
2783;DHT22;1399;47.072;15.452;2023-03-14T03:30:20;11.40;50.80
2783;DHT22;1399;47.072;15.452;2023-03-14T03:32:47;11.40;50.70
2783;DHT22;1399;47.072;15.452;2023-03-14T03:35:13;11.40;50.80
2783;DHT22;1399;47.072;15.452;2023-03-14T03:37:39;11.40;50.80
2783;DHT22;1399;47.072;15.452;2023-03-14T03:40:05;11.30;50.80
2783;DHT22;1399;47.072;15.452;2023-03-14T03:42:33;11.40;50.90
2783;DHT22;1399;47.072;15.452;2023-03-14T03:45:00;11.40;51.00
2783;DHT22;1399;47.072;15.452;2023-03-14T03:47:26;11.40;51.00
2783;DHT22;1399;47.072;15.452;2023-03-14T03:49:52;11.30;50.90
2783;DHT22;1399;47.072;15.452;2023-03-14T03:52:18;11.30;51.00
2783;DHT22;1399;47.072;15.452;2023-03-14T03:54:44;11.30;51.00
2783;DHT22;1399;47.072;15.452;2023-03-14T03:57:09;11.30;51.00
2783;DHT22;1399;47.072;15.452;2023-03-14T03:59:35;11.30;51.00
2783;DHT22;1399;47.072;15.452;2023-03-14T04:02:01;11.30;51.20
2783;DHT22;1399;47.072;15.452;2023-03-14T04:04:27;11.30;51.20
2783;DHT22;1399;47.072;15.452;2023-03-14T04:06:52;11.30;51.20
2783;DHT22;1399;47.072;15.452;2023-03-14T04:09:18;11.30;51.20
2783;DHT22;1399;47.072;15.452;2023-03-14T04:11:44;11.30;51.20
2783;DHT22;1399;47.072;15.452;2023-03-14T04:14:10;11.30;51.20
2783;DHT22;1399;47.072;15.452;2023-03-14T04:16:35;11.30;51.40
2783;DHT22;1399;47.072;15.452;2023-03-14T04:19:02;11.20;51.40
2783;DHT22;1399;47.072;15.452;2023-03-14T04:21:28;11.20;51.40
2783;DHT22;1399;47.072;15.452;2023-03-14T04:23:54;11.20;51.40
2783;DHT22;1399;47.072;15.452;2023-03-14T04:26:19;11.20;51.40
2783;DHT22;1399;47.072;15.452;2023-03-14T04:28:45;11.20;51.50
2783;DHT22;1399;47.072;15.452;2023-03-14T04:31:17;11.20;51.60
2783;DHT22;1399;47.072;15.452;2023-03-14T04:33:44;11.30;51.70
2783;DHT22;1399;47.072;15.452;2023-03-14T04:36:10;11.30;51.70
2783;DHT22;1399;47.072;15.452;2023-03-14T04:38:36;11.30;51.70
2783;DHT22;1399;47.072;15.452;2023-03-14T04:41:02;11.30;51.80
2783;DHT22;1399;47.072;15.452;2023-03-14T04:43:28;11.20;51.70
2783;DHT22;1399;47.072;15.452;2023-03-14T04:45:55;11.20;51.80
2783;DHT22;1399;47.072;15.452;2023-03-14T04:48:21;11.20;51.80
2783;DHT22;1399;47.072;15.452;2023-03-14T04:50:48;11.20;51.80
2783;DHT22;1399;47.072;15.452;2023-03-14T04:53:15;11.20;51.80
2783;DHT22;1399;47.072;15.452;2023-03-14T04:55:42;11.30;52.10
2783;DHT22;1399;47.072;15.452;2023-03-14T04:58:08;11.20;52.00
2783;DHT22;1399;47.072;15.452;2023-03-14T05:00:33;11.20;52.00
2783;DHT22;1399;47.072;15.452;2023-03-14T05:02:59;11.30;52.10
2783;DHT22;1399;47.072;15.452;2023-03-14T05:05:25;11.30;52.10
2783;DHT22;1399;47.072;15.452;2023-03-14T05:07:51;11.30;52.10
2783;DHT22;1399;47.072;15.452;2023-03-14T05:10:17;11.30;52.10
2783;DHT22;1399;47.072;15.452;2023-03-14T05:12:43;11.30;52.20
2783;DHT22;1399;47.072;15.452;2023-03-14T05:15:09;11.40;52.30
2783;DHT22;1399;47.072;15.452;2023-03-14T05:17:35;11.30;52.10
2783;DHT22;1399;47.072;15.452;2023-03-14T05:20:01;11.40;52.40
2783;DHT22;1399;47.072;15.452;2023-03-14T05:22:29;11.40;52.40
2783;DHT22;1399;47.072;15.452;2023-03-14T05:24:55;11.40;52.40
2783;DHT22;1399;47.072;15.452;2023-03-14T05:27:24;11.40;52.60
2783;DHT22;1399;47.072;15.452;2023-03-14T05:29:49;11.40;52.50
2783;DHT22;1399;47.072;15.452;2023-03-14T05:32:15;11.40;53.20
2783;DHT22;1399;47.072;15.452;2023-03-14T05:34:41;11.40;52.40
2783;DHT22;1399;47.072;15.452;2023-03-14T05:37:06;11.50;52.50
2783;DHT22;1399;47.072;15.452;2023-03-14T05:39:32;11.50;52.50
2783;DHT22;1399;47.072;15.452;2023-03-14T05:41:58;11.50;52.60
2783;DHT22;1399;47.072;15.452;2023-03-14T05:44:24;11.50;52.60
2783;DHT22;1399;47.072;15.452;2023-03-14T05:46:49;11.50;52.70
2783;DHT22;1399;47.072;15.452;2023-03-14T05:49:15;11.50;52.70
2783;DHT22;1399;47.072;15.452;2023-03-14T05:51:42;11.60;52.90
2783;DHT22;1399;47.072;15.452;2023-03-14T05:54:07;11.60;52.80
2783;DHT22;1399;47.072;15.452;2023-03-14T05:56:33;11.60;52.80
2783;DHT22;1399;47.072;15.452;2023-03-14T05:58:59;11.70;52.90
2783;DHT22;1399;47.072;15.452;2023-03-14T06:01:27;11.70;53.00
2783;DHT22;1399;47.072;15.452;2023-03-14T06:03:53;11.70;53.00
2783;DHT22;1399;47.072;15.452;2023-03-14T06:06:19;11.80;53.20
2783;DHT22;1399;47.072;15.452;2023-03-14T06:08:45;11.70;53.20
2783;DHT22;1399;47.072;15.452;2023-03-14T06:11:10;11.80;53.40
2783;DHT22;1399;47.072;15.452;2023-03-14T06:13:36;11.80;53.50
2783;DHT22;1399;47.072;15.452;2023-03-14T06:16:02;11.80;53.40
2783;DHT22;1399;47.072;15.452;2023-03-14T06:18:28;11.90;53.40
2783;DHT22;1399;47.072;15.452;2023-03-14T06:20:54;12.00;53.40
2783;DHT22;1399;47.072;15.452;2023-03-14T06:23:22;12.00;53.40
2783;DHT22;1399;47.072;15.452;2023-03-14T06:25:48;12.00;53.60
2783;DHT22;1399;47.072;15.452;2023-03-14T06:28:14;12.10;53.50
2783;DHT22;1399;47.072;15.452;2023-03-14T06:30:40;12.10;53.50
2783;DHT22;1399;47.072;15.452;2023-03-14T06:33:05;12.20;53.50
2783;DHT22;1399;47.072;15.452;2023-03-14T06:35:31;12.20;53.60
2783;DHT22;1399;47.072;15.452;2023-03-14T06:37:57;12.30;53.70
2783;DHT22;1399;47.072;15.452;2023-03-14T06:40:23;12.30;53.60
2783;DHT22;1399;47.072;15.452;2023-03-14T06:42:49;12.30;53.60
2783;DHT22;1399;47.072;15.452;2023-03-14T06:45:15;12.40;53.70
2783;DHT22;1399;47.072;15.452;2023-03-14T06:47:40;12.40;53.60
2783;DHT22;1399;47.072;15.452;2023-03-14T06:50:07;12.50;53.60
2783;DHT22;1399;47.072;15.452;2023-03-14T06:52:33;12.50;53.50
2783;DHT22;1399;47.072;15.452;2023-03-14T06:54:59;12.60;53.50
2783;DHT22;1399;47.072;15.452;2023-03-14T06:57:24;12.60;53.60
2783;DHT22;1399;47.072;15.452;2023-03-14T06:59:50;12.70;53.70
2783;DHT22;1399;47.072;15.452;2023-03-14T07:02:16;12.70;54.30
2783;DHT22;1399;47.072;15.452;2023-03-14T07:04:42;12.70;53.60
2783;DHT22;1399;47.072;15.452;2023-03-14T07:07:08;12.80;53.60
2783;DHT22;1399;47.072;15.452;2023-03-14T07:09:35;12.80;53.70
2783;DHT22;1399;47.072;15.452;2023-03-14T07:12:00;12.90;53.80
2783;DHT22;1399;47.072;15.452;2023-03-14T07:14:26;12.90;53.70
2783;DHT22;1399;47.072;15.452;2023-03-14T07:16:52;13.00;53.60
2783;DHT22;1399;47.072;15.452;2023-03-14T07:19:18;13.00;53.40
2783;DHT22;1399;47.072;15.452;2023-03-14T07:21:44;13.10;53.40
2783;DHT22;1399;47.072;15.452;2023-03-14T07:24:09;13.10;53.40
2783;DHT22;1399;47.072;15.452;2023-03-14T07:26:35;13.20;53.60
2783;DHT22;1399;47.072;15.452;2023-03-14T07:29:01;13.20;53.50
2783;DHT22;1399;47.072;15.452;2023-03-14T07:31:29;13.20;53.50
2783;DHT22;1399;47.072;15.452;2023-03-14T07:33:55;13.30;53.50
2783;DHT22;1399;47.072;15.452;2023-03-14T07:36:20;13.30;53.60
2783;DHT22;1399;47.072;15.452;2023-03-14T07:38:46;13.30;53.70
2783;DHT22;1399;47.072;15.452;2023-03-14T07:41:13;13.40;53.90
2783;DHT22;1399;47.072;15.452;2023-03-14T07:43:39;13.40;54.00
2783;DHT22;1399;47.072;15.452;2023-03-14T07:46:05;13.40;54.10
2783;DHT22;1399;47.072;15.452;2023-03-14T07:48:31;13.50;54.30
2783;DHT22;1399;47.072;15.452;2023-03-14T07:50:56;13.50;54.30
2783;DHT22;1399;47.072;15.452;2023-03-14T07:53:23;13.60;54.40
2783;DHT22;1399;47.072;15.452;2023-03-14T07:55:51;13.60;54.40
2783;DHT22;1399;47.072;15.452;2023-03-14T07:58:17;13.70;54.60
2783;DHT22;1399;47.072;15.452;2023-03-14T08:00:43;13.80;54.60
2783;DHT22;1399;47.072;15.452;2023-03-14T08:03:09;13.90;54.70
2783;DHT22;1399;47.072;15.452;2023-03-14T08:05:38;14.00;54.70
2783;DHT22;1399;47.072;15.452;2023-03-14T08:08:05;14.00;54.70
2783;DHT22;1399;47.072;15.452;2023-03-14T08:10:31;14.10;54.90
2783;DHT22;1399;47.072;15.452;2023-03-14T08:12:59;14.20;54.90
2783;DHT22;1399;47.072;15.452;2023-03-14T08:15:25;14.20;55.00
2783;DHT22;1399;47.072;15.452;2023-03-14T08:17:51;14.30;55.20
2783;DHT22;1399;47.072;15.452;2023-03-14T08:20:21;14.30;55.30
2783;DHT22;1399;47.072;15.452;2023-03-14T08:22:48;14.40;55.40
2783;DHT22;1399;47.072;15.452;2023-03-14T08:25:14;14.50;55.50
2783;DHT22;1399;47.072;15.452;2023-03-14T08:27:40;14.50;55.50
2783;DHT22;1399;47.072;15.452;2023-03-14T08:30:09;14.60;55.50
2783;DHT22;1399;47.072;15.452;2023-03-14T08:32:35;14.70;55.50
2783;DHT22;1399;47.072;15.452;2023-03-14T08:35:01;14.70;55.40
2783;DHT22;1399;47.072;15.452;2023-03-14T08:37:27;14.80;55.40
2783;DHT22;1399;47.072;15.452;2023-03-14T08:39:53;14.80;55.40
2783;DHT22;1399;47.072;15.452;2023-03-14T08:42:19;14.80;55.40
2783;DHT22;1399;47.072;15.452;2023-03-14T08:44:45;14.80;55.40
2783;DHT22;1399;47.072;15.452;2023-03-14T08:47:11;14.90;55.40
2783;DHT22;1399;47.072;15.452;2023-03-14T08:49:37;14.90;55.40
2783;DHT22;1399;47.072;15.452;2023-03-14T08:52:04;15.00;55.40
2783;DHT22;1399;47.072;15.452;2023-03-14T08:54:30;15.00;55.40
2783;DHT22;1399;47.072;15.452;2023-03-14T08:56:57;15.10;55.40
2783;DHT22;1399;47.072;15.452;2023-03-14T08:59:23;15.10;55.40
2783;DHT22;1399;47.072;15.452;2023-03-14T09:01:49;15.10;55.40
2783;DHT22;1399;47.072;15.452;2023-03-14T09:04:15;15.10;55.40
2783;DHT22;1399;47.072;15.452;2023-03-14T09:06:40;15.10;55.40
2783;DHT22;1399;47.072;15.452;2023-03-14T09:09:06;15.10;55.40
2783;DHT22;1399;47.072;15.452;2023-03-14T09:11:32;15.20;55.40
2783;DHT22;1399;47.072;15.452;2023-03-14T09:13:58;15.20;55.40
2783;DHT22;1399;47.072;15.452;2023-03-14T09:16:24;15.30;55.40
2783;DHT22;1399;47.072;15.452;2023-03-14T09:18:50;15.30;55.30
2783;DHT22;1399;47.072;15.452;2023-03-14T09:21:20;15.40;55.30
2783;DHT22;1399;47.072;15.452;2023-03-14T09:23:46;15.40;55.30
2783;DHT22;1399;47.072;15.452;2023-03-14T09:26:11;15.40;55.30
2783;DHT22;1399;47.072;15.452;2023-03-14T09:28:37;15.40;55.20
2783;DHT22;1399;47.072;15.452;2023-03-14T09:31:07;15.50;55.30
2783;DHT22;1399;47.072;15.452;2023-03-14T09:33:34;15.50;55.20
2783;DHT22;1399;47.072;15.452;2023-03-14T09:36:00;15.60;55.10
2783;DHT22;1399;47.072;15.452;2023-03-14T09:38:26;15.60;55.10
2783;DHT22;1399;47.072;15.452;2023-03-14T09:40:53;15.60;55.10
2783;DHT22;1399;47.072;15.452;2023-03-14T09:43:21;15.50;55.10
2783;DHT22;1399;47.072;15.452;2023-03-14T09:45:48;15.50;55.10
2783;DHT22;1399;47.072;15.452;2023-03-14T09:48:20;15.50;55.10
2783;DHT22;1399;47.072;15.452;2023-03-14T09:50:50;15.40;55.10
2783;DHT22;1399;47.072;15.452;2023-03-14T09:53:32;15.40;55.10
2783;DHT22;1399;47.072;15.452;2023-03-14T09:56:00;15.40;55.10
2783;DHT22;1399;47.072;15.452;2023-03-14T09:58:26;15.40;55.20
2783;DHT22;1399;47.072;15.452;2023-03-14T10:00:55;15.30;55.10
2783;DHT22;1399;47.072;15.452;2023-03-14T10:03:34;15.30;55.00
2783;DHT22;1399;47.072;15.452;2023-03-14T10:06:00;15.30;55.00
2783;DHT22;1399;47.072;15.452;2023-03-14T10:08:27;15.30;55.00
2783;DHT22;1399;47.072;15.452;2023-03-14T10:10:53;15.30;55.00
2783;DHT22;1399;47.072;15.452;2023-03-14T10:13:23;15.30;55.00
2783;DHT22;1399;47.072;15.452;2023-03-14T10:16:02;15.30;55.00
2783;DHT22;1399;47.072;15.452;2023-03-14T10:18:30;15.30;54.90
2783;DHT22;1399;47.072;15.452;2023-03-14T10:21:26;15.30;54.90
2783;DHT22;1399;47.072;15.452;2023-03-14T10:23:53;15.40;54.80
2783;DHT22;1399;47.072;15.452;2023-03-14T10:26:24;15.40;54.70
2783;DHT22;1399;47.072;15.452;2023-03-14T10:28:53;15.50;54.70
2783;DHT22;1399;47.072;15.452;2023-03-14T10:31:24;15.50;54.60
2783;DHT22;1399;47.072;15.452;2023-03-14T10:34:02;15.60;54.60
2783;DHT22;1399;47.072;15.452;2023-03-14T10:36:33;15.60;54.50
2783;DHT22;1399;47.072;15.452;2023-03-14T10:41:50;15.70;54.60
2783;DHT22;1399;47.072;15.452;2023-03-14T10:44:21;15.70;54.50
2783;DHT22;1399;47.072;15.452;2023-03-14T10:46:59;15.80;54.30
2783;DHT22;1399;47.072;15.452;2023-03-14T10:49:36;15.90;54.20
2783;DHT22;1399;47.072;15.452;2023-03-14T10:52:18;16.00;54.10
2783;DHT22;1399;47.072;15.452;2023-03-14T10:57:41;16.10;54.00
2783;DHT22;1399;47.072;15.452;2023-03-14T11:00:19;16.00;53.90
2783;DHT22;1399;47.072;15.452;2023-03-14T11:03:04;16.00;53.90
2783;DHT22;1399;47.072;15.452;2023-03-14T11:05:46;16.00;53.90
2783;DHT22;1399;47.072;15.452;2023-03-14T11:11:06;16.00;53.80
2783;DHT22;1399;47.072;15.452;2023-03-14T11:13:41;16.00;53.70
2783;DHT22;1399;47.072;15.452;2023-03-14T11:20:09;16.00;53.30
2783;DHT22;1399;47.072;15.452;2023-03-14T11:33:09;16.20;52.70
2783;DHT22;1399;47.072;15.452;2023-03-14T11:35:47;16.30;52.40
2783;DHT22;1399;47.072;15.452;2023-03-14T11:40:57;16.50;51.90
2783;DHT22;1399;47.072;15.452;2023-03-14T11:43:35;16.50;51.70
2783;DHT22;1399;47.072;15.452;2023-03-14T11:46:18;16.60;51.50
2783;DHT22;1399;47.072;15.452;2023-03-14T11:51:39;16.60;50.90
2783;DHT22;1399;47.072;15.452;2023-03-14T11:54:27;16.70;50.80
2783;DHT22;1399;47.072;15.452;2023-03-14T11:56:59;16.70;50.50
2783;DHT22;1399;47.072;15.452;2023-03-14T12:02:04;16.80;50.10
2783;DHT22;1399;47.072;15.452;2023-03-14T12:07:21;16.80;49.60
2783;DHT22;1399;47.072;15.452;2023-03-14T12:09:51;16.80;49.30
2783;DHT22;1399;47.072;15.452;2023-03-14T12:12:21;16.80;49.10
2783;DHT22;1399;47.072;15.452;2023-03-14T12:15:18;16.80;49.00
2783;DHT22;1399;47.072;15.452;2023-03-14T12:17:44;16.80;48.90
2783;DHT22;1399;47.072;15.452;2023-03-14T12:25:20;16.90;48.40
2783;DHT22;1399;47.072;15.452;2023-03-14T12:28:11;16.80;48.20
2783;DHT22;1399;47.072;15.452;2023-03-14T12:30:42;16.80;48.10
2783;DHT22;1399;47.072;15.452;2023-03-14T12:35:46;16.80;48.10
2783;DHT22;1399;47.072;15.452;2023-03-14T12:38:23;16.80;48.20
2783;DHT22;1399;47.072;15.452;2023-03-14T12:43:43;16.70;48.30
2783;DHT22;1399;47.072;15.452;2023-03-14T12:46:22;16.60;48.90
2783;DHT22;1399;47.072;15.452;2023-03-14T12:51:42;16.60;48.70
2783;DHT22;1399;47.072;15.452;2023-03-14T12:54:25;16.60;48.60
2783;DHT22;1399;47.072;15.452;2023-03-14T12:57:15;16.60;48.70
2783;DHT22;1399;47.072;15.452;2023-03-14T12:59:52;16.60;48.60
2783;DHT22;1399;47.072;15.452;2023-03-14T13:05:16;16.50;48.50
2783;DHT22;1399;47.072;15.452;2023-03-14T13:12:50;16.50;48.70
2783;DHT22;1399;47.072;15.452;2023-03-14T13:15:35;16.50;48.70
2783;DHT22;1399;47.072;15.452;2023-03-14T13:18:23;16.50;48.60
2783;DHT22;1399;47.072;15.452;2023-03-14T13:21:13;16.60;48.70
2783;DHT22;1399;47.072;15.452;2023-03-14T13:23:40;16.60;48.70
2783;DHT22;1399;47.072;15.452;2023-03-14T13:26:13;16.60;48.70
2783;DHT22;1399;47.072;15.452;2023-03-14T13:28:39;16.60;48.70
2783;DHT22;1399;47.072;15.452;2023-03-14T13:31:05;16.60;48.80
2783;DHT22;1399;47.072;15.452;2023-03-14T13:33:33;16.50;48.80
2783;DHT22;1399;47.072;15.452;2023-03-14T13:36:02;16.50;48.80
2783;DHT22;1399;47.072;15.452;2023-03-14T13:38:31;16.50;48.80
2783;DHT22;1399;47.072;15.452;2023-03-14T13:41:07;16.50;48.80
2783;DHT22;1399;47.072;15.452;2023-03-14T13:43:36;16.50;49.00
2783;DHT22;1399;47.072;15.452;2023-03-14T13:46:12;16.50;49.30
2783;DHT22;1399;47.072;15.452;2023-03-14T13:48:44;16.50;49.30
2783;DHT22;1399;47.072;15.452;2023-03-14T13:51:13;16.50;49.30
2783;DHT22;1399;47.072;15.452;2023-03-14T13:53:46;16.50;49.30
2783;DHT22;1399;47.072;15.452;2023-03-14T13:56:13;16.50;49.30
2783;DHT22;1399;47.072;15.452;2023-03-14T13:58:40;16.50;49.30
2783;DHT22;1399;47.072;15.452;2023-03-14T14:01:13;16.50;49.70
2783;DHT22;1399;47.072;15.452;2023-03-14T14:03:41;16.40;49.60
2783;DHT22;1399;47.072;15.452;2023-03-14T14:06:22;16.40;49.60
2783;DHT22;1399;47.072;15.452;2023-03-14T14:08:49;16.40;49.60
2783;DHT22;1399;47.072;15.452;2023-03-14T14:14:15;16.30;49.60
2783;DHT22;1399;47.072;15.452;2023-03-14T14:16:44;16.30;49.60
2783;DHT22;1399;47.072;15.452;2023-03-14T14:19:13;16.30;49.60
2783;DHT22;1399;47.072;15.452;2023-03-14T14:21:39;16.30;49.60
2783;DHT22;1399;47.072;15.452;2023-03-14T14:24:05;16.20;49.60
2783;DHT22;1399;47.072;15.452;2023-03-14T14:26:32;16.30;49.60
2783;DHT22;1399;47.072;15.452;2023-03-14T14:29:01;16.30;49.50
2783;DHT22;1399;47.072;15.452;2023-03-14T14:31:27;16.30;49.40
2783;DHT22;1399;47.072;15.452;2023-03-14T14:33:55;16.30;49.30
2783;DHT22;1399;47.072;15.452;2023-03-14T14:36:37;16.30;49.20
2783;DHT22;1399;47.072;15.452;2023-03-14T14:39:16;16.40;49.30
2783;DHT22;1399;47.072;15.452;2023-03-14T14:41:43;16.30;49.20
2783;DHT22;1399;47.072;15.452;2023-03-14T14:44:13;16.40;49.30
2783;DHT22;1399;47.072;15.452;2023-03-14T14:46:39;16.40;49.20
2783;DHT22;1399;47.072;15.452;2023-03-14T14:49:18;16.30;49.20
2783;DHT22;1399;47.072;15.452;2023-03-14T14:51:49;16.40;49.20
2783;DHT22;1399;47.072;15.452;2023-03-14T14:54:17;16.40;49.20
2783;DHT22;1399;47.072;15.452;2023-03-14T14:56:52;16.30;49.10
2783;DHT22;1399;47.072;15.452;2023-03-14T14:59:28;16.30;49.00
2783;DHT22;1399;47.072;15.452;2023-03-14T15:02:02;16.30;49.00
2783;DHT22;1399;47.072;15.452;2023-03-14T15:04:30;16.30;49.00
2783;DHT22;1399;47.072;15.452;2023-03-14T15:06:57;16.30;48.90
2783;DHT22;1399;47.072;15.452;2023-03-14T15:09:23;16.20;48.80
2783;DHT22;1399;47.072;15.452;2023-03-14T15:11:50;16.20;48.90
2783;DHT22;1399;47.072;15.452;2023-03-14T15:14:16;16.20;48.90
2783;DHT22;1399;47.072;15.452;2023-03-14T15:16:42;16.20;48.90
2783;DHT22;1399;47.072;15.452;2023-03-14T15:19:22;16.20;48.90
2783;DHT22;1399;47.072;15.452;2023-03-14T15:21:50;16.20;49.00
2783;DHT22;1399;47.072;15.452;2023-03-14T15:24:16;16.20;49.00
2783;DHT22;1399;47.072;15.452;2023-03-14T15:26:42;16.20;49.00
2783;DHT22;1399;47.072;15.452;2023-03-14T15:29:11;16.20;49.00
2783;DHT22;1399;47.072;15.452;2023-03-14T15:31:39;16.30;49.00
2783;DHT22;1399;47.072;15.452;2023-03-14T15:34:05;16.20;48.90
2783;DHT22;1399;47.072;15.452;2023-03-14T15:36:32;16.20;48.90
2783;DHT22;1399;47.072;15.452;2023-03-14T15:38:59;16.20;48.90
2783;DHT22;1399;47.072;15.452;2023-03-14T15:41:26;16.20;49.00
2783;DHT22;1399;47.072;15.452;2023-03-14T15:43:53;16.20;49.00
2783;DHT22;1399;47.072;15.452;2023-03-14T15:46:20;16.10;49.00
2783;DHT22;1399;47.072;15.452;2023-03-14T15:48:48;16.10;49.10
2783;DHT22;1399;47.072;15.452;2023-03-14T15:51:14;16.10;49.10
2783;DHT22;1399;47.072;15.452;2023-03-14T15:53:40;16.00;49.10
2783;DHT22;1399;47.072;15.452;2023-03-14T15:56:12;16.00;49.10
2783;DHT22;1399;47.072;15.452;2023-03-14T15:58:39;16.00;49.00
2783;DHT22;1399;47.072;15.452;2023-03-14T16:01:06;16.00;49.00
2783;DHT22;1399;47.072;15.452;2023-03-14T16:03:35;16.00;49.00
2783;DHT22;1399;47.072;15.452;2023-03-14T16:06:01;16.00;49.10
2783;DHT22;1399;47.072;15.452;2023-03-14T16:08:27;15.90;49.10
2783;DHT22;1399;47.072;15.452;2023-03-14T16:10:55;15.90;49.00
2783;DHT22;1399;47.072;15.452;2023-03-14T16:13:21;15.90;49.00
2783;DHT22;1399;47.072;15.452;2023-03-14T16:16:03;15.90;49.00
2783;DHT22;1399;47.072;15.452;2023-03-14T16:18:32;15.80;48.80
2783;DHT22;1399;47.072;15.452;2023-03-14T16:21:00;15.90;48.80
2783;DHT22;1399;47.072;15.452;2023-03-14T16:23:27;15.80;48.70
2783;DHT22;1399;47.072;15.452;2023-03-14T16:25:54;15.80;48.60
2783;DHT22;1399;47.072;15.452;2023-03-14T16:28:21;15.80;48.60
2783;DHT22;1399;47.072;15.452;2023-03-14T16:30:47;15.80;48.50
2783;DHT22;1399;47.072;15.452;2023-03-14T16:33:14;15.70;48.50
2783;DHT22;1399;47.072;15.452;2023-03-14T16:35:40;15.70;48.50
2783;DHT22;1399;47.072;15.452;2023-03-14T16:38:06;15.70;48.50
2783;DHT22;1399;47.072;15.452;2023-03-14T16:40:32;15.60;48.40
2783;DHT22;1399;47.072;15.452;2023-03-14T16:42:58;15.60;48.40
2783;DHT22;1399;47.072;15.452;2023-03-14T16:45:24;15.60;48.40
2783;DHT22;1399;47.072;15.452;2023-03-14T16:47:50;15.60;48.50
2783;DHT22;1399;47.072;15.452;2023-03-14T16:50:15;15.60;48.60
2783;DHT22;1399;47.072;15.452;2023-03-14T16:52:41;15.60;48.60
2783;DHT22;1399;47.072;15.452;2023-03-14T16:55:07;15.50;48.60